createdAt,value
2023-03-21T00:00:46.146Z,99908.48
2023-03-21T00:03:22.238Z,99905.58
2023-03-21T00:05:53.879Z,99902.49
2023-03-21T00:08:22.109Z,99903.42
2023-03-21T00:10:49.515Z,99901.88
2023-03-21T00:13:19.278Z,99901.02
2023-03-21T00:16:14.317Z,99901.73
2023-03-21T00:18:42.623Z,99897.23
2023-03-21T00:21:39.537Z,99895.90
2023-03-21T00:24:03.678Z,99893.86
2023-03-21T00:26:31.888Z,99893.02
2023-03-21T00:28:59.218Z,99888.89
2023-03-21T00:31:26.532Z,99887.84
2023-03-21T00:33:56.677Z,99886.14
2023-03-21T00:36:25.974Z,99886.90
2023-03-21T00:38:53.294Z,99884.20
2023-03-21T00:41:35.126Z,99883.55
2023-03-21T00:44:08.085Z,99885.49
2023-03-21T00:47:00.548Z,99883.36
2023-03-21T00:49:26.175Z,99884.80
2023-03-21T00:51:55.359Z,99887.63
2023-03-21T00:54:24.874Z,99886.27
2023-03-21T00:56:52.433Z,99883.17
2023-03-21T00:59:19.725Z,99880.80
2023-03-21T01:01:47.729Z,99887.05
2023-03-21T01:04:16.778Z,99882.97
2023-03-21T01:06:45.918Z,99880.55
2023-03-21T01:09:26.429Z,99877.97
2023-03-21T01:11:54.330Z,99876.27
2023-03-21T01:14:23.977Z,99875.41
2023-03-21T01:16:52.988Z,99876.11
2023-03-21T01:19:37.631Z,99876.80
2023-03-21T01:22:10.829Z,99874.55
2023-03-21T01:24:50.352Z,99875.29
2023-03-21T01:27:20.968Z,99871.05
2023-03-21T01:29:49.551Z,99867.09
2023-03-21T01:32:16.833Z,99869.33
2023-03-21T01:34:44.101Z,99866.92
2023-03-21T01:37:14.742Z,99865.83
2023-03-21T01:39:48.386Z,99866.41
2023-03-21T01:42:17.424Z,99862.63
2023-03-21T01:44:58.471Z,99864.55
2023-03-21T01:47:34.500Z,99862.73
2023-03-21T01:50:31.017Z,99864.85
2023-03-21T01:53:21.057Z,99860.89
2023-03-21T01:55:50.409Z,99861.40
2023-03-21T01:58:33.592Z,99860.02
2023-03-21T02:01:23.025Z,99850.20
2023-03-21T02:03:53.123Z,99848.43
2023-03-21T02:06:45.766Z,99842.40
2023-03-21T02:09:35.942Z,99843.92
2023-03-21T02:12:04.553Z,99849.83
2023-03-21T02:14:34.528Z,99847.46
2023-03-21T02:17:12.877Z,99849.27
2023-03-21T02:20:11.833Z,99848.46
2023-03-21T02:23:05.172Z,99856.79
2023-03-21T02:25:51.868Z,99854.30
2023-03-21T02:28:27.302Z,99861.45
2023-03-21T02:31:26.684Z,99865.10
2023-03-21T02:34:26.236Z,99862.38
2023-03-21T02:37:06.897Z,99859.48
2023-03-21T02:39:51.013Z,99860.98
2023-03-21T02:42:22.570Z,99859.21
2023-03-21T02:45:02.779Z,99860.23
2023-03-21T02:47:35.963Z,99860.92
2023-03-21T02:50:12.981Z,99858.88
2023-03-21T02:52:47.348Z,99859.39
2023-03-21T02:55:21.105Z,99861.67
2023-03-21T02:57:59.245Z,99860.83
2023-03-21T03:00:40.016Z,99862.14
2023-03-21T03:03:10.464Z,99867.61
2023-03-21T03:05:48.931Z,99865.02
2023-03-21T03:08:41.323Z,99864.84
2023-03-21T03:11:25.440Z,99874.11
2023-03-21T03:14:21.141Z,99873.41
2023-03-21T03:17:06.824Z,99872.58
2023-03-21T03:19:49.554Z,99873.96
2023-03-21T03:22:24.574Z,99873.06
2023-03-21T03:25:02.820Z,99873.75
2023-03-21T03:27:46.655Z,99874.80
2023-03-21T03:30:17.289Z,99874.09
2023-03-21T03:32:49.854Z,99877.23
2023-03-21T03:35:20.042Z,99874.67
2023-03-21T03:37:52.794Z,99875.30
2023-03-21T03:40:28.374Z,99874.56
2023-03-21T03:43:13.480Z,99877.93
2023-03-21T03:45:48.951Z,99882.48
2023-03-21T03:48:26.562Z,99880.71
2023-03-21T03:51:01.582Z,99885.66
2023-03-21T03:53:44.224Z,99886.52
2023-03-21T03:56:25.599Z,99878.91
2023-03-21T03:58:57.687Z,99876.23
2023-03-21T04:01:36.721Z,99873.89
2023-03-21T04:04:12.911Z,99875.38
2023-03-21T04:06:53.593Z,99874.23
2023-03-21T04:09:40.930Z,99871.59
2023-03-21T04:12:11.185Z,99875.90
2023-03-21T04:14:45.765Z,99878.41
2023-03-21T04:17:15.697Z,99877.16
2023-03-21T04:19:43.219Z,99876.40
2023-03-21T04:22:10.916Z,99872.85
2023-03-21T04:24:40.065Z,99874.85
2023-03-21T04:27:08.043Z,99872.40
2023-03-21T04:29:42.717Z,99879.69
2023-03-21T04:32:34.290Z,99880.05
2023-03-21T04:35:09.967Z,99877.48
2023-03-21T04:37:39.372Z,99876.92
2023-03-21T04:40:11.302Z,99876.52
2023-03-21T04:42:39.027Z,99877.40
2023-03-21T04:45:08.774Z,99882.23
2023-03-21T04:47:36.122Z,99882.27
2023-03-21T04:50:03.620Z,99881.15
2023-03-21T04:52:31.153Z,99877.30
2023-03-21T04:55:00.023Z,99877.91
2023-03-21T04:57:27.198Z,99877.52
2023-03-21T04:59:54.417Z,99884.95
2023-03-21T05:02:22.226Z,99882.27
2023-03-21T05:04:49.455Z,99882.59
2023-03-21T05:07:16.668Z,99883.46
2023-03-21T05:09:44.208Z,99889.42
2023-03-21T05:12:13.934Z,99886.70
2023-03-21T05:14:41.383Z,99887.99
2023-03-21T05:17:10.753Z,99891.70
2023-03-21T05:19:40.842Z,99893.56
2023-03-21T05:22:11.444Z,99895.27
2023-03-21T05:24:42.708Z,99896.30
2023-03-21T05:27:35.346Z,99897.78
2023-03-21T05:30:10.171Z,99898.39
2023-03-21T05:32:37.931Z,99901.21
2023-03-21T05:35:05.851Z,99905.13
2023-03-21T05:37:33.333Z,99905.78
2023-03-21T05:40:05.829Z,99903.59
2023-03-21T05:42:36.002Z,99906.91
2023-03-21T05:45:23.929Z,99910.94
2023-03-21T05:48:11.498Z,99912.80
2023-03-21T05:50:53.009Z,99915.74
2023-03-21T05:53:23.252Z,99912.30
2023-03-21T05:55:50.792Z,99914.42
2023-03-21T05:58:35.450Z,99922.64
2023-03-21T06:01:12.742Z,99925.77
2023-03-21T06:03:41.530Z,99927.03
2023-03-21T06:06:29.351Z,99931.89
2023-03-21T06:08:59.367Z,99933.96
2023-03-21T06:11:31.613Z,99936.75
2023-03-21T06:14:13.440Z,99937.56
2023-03-21T06:16:51.212Z,99942.54
2023-03-21T06:19:22.656Z,99940.46
2023-03-21T06:22:04.221Z,99939.53
2023-03-21T06:24:41.108Z,99944.75
2023-03-21T06:27:11.540Z,99943.77
2023-03-21T06:29:58.663Z,99945.93
2023-03-21T06:32:26.440Z,99942.38
2023-03-21T06:34:59.699Z,99948.15
2023-03-21T06:37:29.936Z,99945.67
2023-03-21T06:39:57.695Z,99946.98
2023-03-21T06:42:30.357Z,99946.59
2023-03-21T06:45:01.150Z,99949.70
2023-03-21T06:47:28.673Z,99951.79
2023-03-21T06:49:56.453Z,99952.13
2023-03-21T06:52:23.661Z,99953.92
2023-03-21T06:54:52.740Z,99956.74
2023-03-21T06:57:22.074Z,99961.96
2023-03-21T06:59:52.226Z,99960.92
2023-03-21T07:02:21.509Z,99961.58
2023-03-21T07:04:58.355Z,99962.94
2023-03-21T07:07:29.849Z,99967.70
2023-03-21T07:10:00.464Z,99968.47
2023-03-21T07:12:30.149Z,99972.20
2023-03-21T07:15:27.546Z,99971.54
2023-03-21T07:17:54.806Z,99974.42
2023-03-21T07:20:22.294Z,99973.61
2023-03-21T07:22:49.570Z,99969.35
2023-03-21T07:25:17.545Z,99972.63
2023-03-21T07:27:46.502Z,99972.43
2023-03-21T07:30:15.264Z,99972.88
2023-03-21T07:32:42.981Z,99976.61
2023-03-21T07:35:18.187Z,99972.05
2023-03-21T07:37:46.390Z,99973.65
2023-03-21T07:40:16.786Z,99974.26
2023-03-21T07:42:45.250Z,99972.77
2023-03-21T07:45:16.597Z,99971.89
2023-03-21T07:47:45.822Z,99972.70
2023-03-21T07:50:13.462Z,99967.34
2023-03-21T07:52:41.653Z,99971.77
2023-03-21T07:55:10.563Z,99972.40
2023-03-21T07:57:37.931Z,99971.38
2023-03-21T08:00:07.111Z,99976.77
2023-03-21T08:02:40.035Z,99983.08
2023-03-21T08:05:08.220Z,99984.71
2023-03-21T08:07:35.440Z,99983.27
2023-03-21T08:10:15.982Z,99984.82
2023-03-21T08:12:43.440Z,99984.60
2023-03-21T08:15:13.292Z,99986.22
2023-03-21T08:17:41.095Z,99989.27
2023-03-21T08:20:12.737Z,99989.30
2023-03-21T08:22:39.911Z,99985.27
2023-03-21T08:25:10.245Z,99988.10
2023-03-21T08:27:37.765Z,99987.19
2023-03-21T08:30:05.843Z,99986.59
2023-03-21T08:32:34.033Z,99988.74
2023-03-21T08:35:12.709Z,99991.55
2023-03-21T08:37:41.055Z,99988.35
2023-03-21T08:40:13.441Z,99990.55
2023-03-21T08:42:41.849Z,99995.25
2023-03-21T08:45:11.332Z,99995.44
2023-03-21T08:47:38.705Z,99998.64
2023-03-21T08:50:09.538Z,100001.84
2023-03-21T08:52:37.329Z,100005.31
2023-03-21T08:55:04.837Z,100007.46
2023-03-21T08:57:32.568Z,100010.76
2023-03-21T08:59:59.891Z,100011.08
2023-03-21T09:02:27.284Z,100012.53
2023-03-21T09:04:59.232Z,100016.28
2023-03-21T09:07:27.985Z,100011.86
2023-03-21T09:10:08.423Z,100017.07
2023-03-21T09:12:43.031Z,100020.84
2023-03-21T09:15:12.467Z,100020.13
2023-03-21T09:17:44.109Z,100022.33
2023-03-21T09:20:18.920Z,100022.90
2023-03-21T09:22:46.324Z,100021.96
2023-03-21T09:25:14.168Z,100026.78
2023-03-21T09:27:42.150Z,100032.81
2023-03-21T09:30:11.992Z,100032.09
2023-03-21T09:32:40.026Z,100033.59
2023-03-21T09:35:09.718Z,100036.50
2023-03-21T09:37:38.471Z,100039.70
2023-03-21T09:40:08.807Z,100042.98
2023-03-21T09:42:45.872Z,100041.67
2023-03-21T09:45:21.078Z,100035.75
2023-03-21T09:47:54.438Z,100042.69
2023-03-21T09:50:27.502Z,100044.54
2023-03-21T09:52:58.537Z,100042.98
2023-03-21T09:55:31.794Z,100039.73
2023-03-21T09:58:06.955Z,100041.20
2023-03-21T10:00:39.868Z,100043.30
2023-03-21T10:03:18.050Z,100043.79
2023-03-21T10:05:48.647Z,100044.94
2023-03-21T10:08:25.290Z,100044.33
2023-03-21T10:10:56.648Z,100046.88
2023-03-21T10:13:26.593Z,100049.48
2023-03-21T10:16:01.613Z,100050.82
2023-03-21T10:18:33.775Z,100050.09
2023-03-21T10:21:07.744Z,100052.91
2023-03-21T10:23:40.508Z,100054.70
2023-03-21T10:26:31.087Z,100055.02
2023-03-21T10:29:03.068Z,100053.31
2023-03-21T10:31:34.570Z,100055.52
2023-03-21T10:34:08.060Z,100056.11
2023-03-21T10:36:46.040Z,100060.83
2023-03-21T10:39:29.128Z,100060.21
2023-03-21T10:41:59.441Z,100058.08
2023-03-21T10:44:37.643Z,100058.92
2023-03-21T10:47:10.264Z,100061.98
2023-03-21T10:50:07.024Z,100061.41
2023-03-21T10:52:36.915Z,100063.99
2023-03-21T10:55:23.067Z,100060.48
2023-03-21T10:57:54.321Z,100056.59
2023-03-21T11:00:26.436Z,100057.88
2023-03-21T11:03:04.811Z,100060.48
2023-03-21T11:05:44.821Z,100055.10
2023-03-21T11:08:16.201Z,100056.80
2023-03-21T11:10:56.153Z,100052.27
2023-03-21T11:13:40.906Z,100055.36
2023-03-21T11:16:12.606Z,100057.51
2023-03-21T11:18:53.764Z,100059.20
2023-03-21T11:21:22.587Z,100056.45
2023-03-21T11:23:53.006Z,100058.02
2023-03-21T11:26:27.555Z,100055.87
2023-03-21T11:28:58.724Z,100055.79
2023-03-21T11:31:40.975Z,100053.95
2023-03-21T11:34:11.197Z,100046.23
2023-03-21T11:36:42.313Z,100046.07
2023-03-21T11:39:29.678Z,100049.60
2023-03-21T11:41:55.522Z,100043.92
2023-03-21T11:44:33.669Z,100045.63
2023-03-21T11:47:13.581Z,100038.35
2023-03-21T11:49:41.132Z,100037.29
2023-03-21T11:52:25.454Z,100040.84
2023-03-21T11:55:08.097Z,100042.62
2023-03-21T11:57:45.997Z,100041.34
2023-03-21T12:00:22.528Z,100042.92
2023-03-21T12:03:47.256Z,100042.09
2023-03-21T12:06:24.116Z,100037.52
2023-03-21T12:09:10.288Z,100035.48
2023-03-21T12:11:46.918Z,100035.10
2023-03-21T12:14:22.402Z,100036.80
2023-03-21T12:17:07.550Z,100034.09
2023-03-21T12:20:10.145Z,100034.49
2023-03-21T12:22:46.984Z,100036.25
2023-03-21T12:25:20.660Z,100033.70
2023-03-21T12:27:54.840Z,100028.72
2023-03-21T12:30:43.267Z,100030.95
2023-03-21T12:33:31.591Z,100029.63
2023-03-21T12:36:14.876Z,100024.23
2023-03-21T12:38:45.248Z,100024.44
2023-03-21T12:41:25.792Z,100017.41
2023-03-21T12:43:59.960Z,100017.91
2023-03-21T12:46:34.197Z,100014.92
2023-03-21T12:49:07.106Z,100014.69
2023-03-21T12:51:38.972Z,100015.54
2023-03-21T12:54:15.939Z,100017.94
2023-03-21T12:56:53.675Z,100015.52
2023-03-21T12:59:31.592Z,100017.60
2023-03-21T13:02:06.711Z,100017.17
2023-03-21T13:04:45.290Z,100015.57
2023-03-21T13:07:17.649Z,100015.03
2023-03-21T13:09:45.697Z,100015.13
2023-03-21T13:12:45.291Z,100014.13
2023-03-21T13:15:35.125Z,100018.29
2023-03-21T13:18:14.113Z,100013.52
2023-03-21T13:20:48.788Z,100010.09
2023-03-21T13:23:18.714Z,100009.04
2023-03-21T13:25:49.262Z,100006.42
2023-03-21T13:28:23.872Z,100003.42
2023-03-21T13:30:52.302Z,100004.59
2023-03-21T13:33:26.203Z,99999.60
2023-03-21T13:36:06.292Z,100002.39
2023-03-21T13:38:36.546Z,100002.65
2023-03-21T13:41:09.407Z,100002.77
2023-03-21T13:43:44.977Z,100005.47
2023-03-21T13:46:16.481Z,100001.90
2023-03-21T13:49:00.177Z,100000.16
2023-03-21T13:51:48.291Z,100001.95
2023-03-21T13:54:30.968Z,100000.12
2023-03-21T13:57:08.529Z,100002.74
2023-03-21T13:59:45.712Z,100000.71
2023-03-21T14:02:29.667Z,100000.51
2023-03-21T14:05:05.422Z,99999.17
2023-03-21T14:07:35.204Z,99994.08
2023-03-21T14:10:06.573Z,99996.95
2023-03-21T14:12:40.846Z,99997.15
2023-03-21T14:15:17.247Z,99999.77
2023-03-21T14:17:54.152Z,100003.89
2023-03-21T14:20:24.777Z,100003.54
2023-03-21T14:22:52.241Z,100003.67
2023-03-21T14:25:21.725Z,100001.77
2023-03-21T14:27:52.852Z,100001.16
2023-03-21T14:30:27.973Z,100003.00
2023-03-21T14:32:58.887Z,100001.77
2023-03-21T14:35:26.917Z,100001.66
2023-03-21T14:37:54.498Z,100004.20
2023-03-21T14:40:25.732Z,100003.49
2023-03-21T14:42:54.017Z,100006.06
2023-03-21T14:45:24.690Z,100003.80
2023-03-21T14:48:05.912Z,100005.80
2023-03-21T14:50:39.244Z,100006.23
2023-03-21T14:53:07.398Z,100005.34
2023-03-21T14:55:34.875Z,100001.57
2023-03-21T14:58:02.393Z,100003.88
2023-03-21T15:00:32.048Z,99999.60
2023-03-21T15:03:03.174Z,100000.67
2023-03-21T15:05:33.725Z,100001.19
2023-03-21T15:08:03.323Z,99997.72
2023-03-21T15:10:32.992Z,99999.75
2023-03-21T15:13:02.749Z,99995.14
2023-03-21T15:15:31.571Z,99992.27
2023-03-21T15:18:04.066Z,99994.61
2023-03-21T15:20:35.563Z,99990.30
2023-03-21T15:23:06.435Z,99991.48
2023-03-21T15:25:37.743Z,99992.55
2023-03-21T15:28:06.260Z,99993.70
2023-03-21T15:30:52.107Z,99991.80
2023-03-21T15:33:20.670Z,99988.55
2023-03-21T15:35:54.306Z,99991.77
2023-03-21T15:38:31.640Z,99988.00
2023-03-21T15:41:26.954Z,99988.95
2023-03-21T15:44:04.175Z,99987.25
2023-03-21T15:46:44.128Z,99987.42
2023-03-21T15:49:20.472Z,99985.34
2023-03-21T15:51:50.202Z,99984.23
2023-03-21T15:54:24.765Z,99985.41
2023-03-21T15:56:55.051Z,99983.08
2023-03-21T15:59:25.789Z,99984.88
2023-03-21T16:01:53.394Z,99985.79
2023-03-21T16:04:24.134Z,99987.88
2023-03-21T16:07:01.587Z,99985.55
2023-03-21T16:09:30.052Z,99987.48
2023-03-21T16:11:58.848Z,99986.40
2023-03-21T16:14:28.708Z,99989.46
2023-03-21T16:16:56.785Z,99990.14
2023-03-21T16:19:24.989Z,99991.77
2023-03-21T16:21:52.835Z,99992.30
2023-03-21T16:24:22.731Z,99985.05
2023-03-21T16:26:53.556Z,99988.15
2023-03-21T16:29:22.625Z,99987.66
2023-03-21T16:31:53.381Z,99985.81
2023-03-21T16:34:20.771Z,99984.99
2023-03-21T16:36:48.102Z,99980.73
2023-03-21T16:39:21.176Z,99981.52
2023-03-21T16:41:49.119Z,99989.58
2023-03-21T16:44:16.603Z,99987.09
2023-03-21T16:46:44.971Z,99988.93
2023-03-21T16:49:21.478Z,99991.34
2023-03-21T16:51:49.109Z,99990.60
2023-03-21T16:54:16.233Z,99994.55
2023-03-21T16:56:51.012Z,99995.49
2023-03-21T16:59:18.280Z,100000.28
2023-03-21T17:01:49.061Z,100003.31
2023-03-21T17:04:17.079Z,100005.10
2023-03-21T17:06:47.836Z,100006.91
2023-03-21T17:09:16.557Z,100012.65
2023-03-21T17:11:44.724Z,100014.05
2023-03-21T17:14:18.815Z,100020.45
2023-03-21T17:16:47.144Z,100021.95
2023-03-21T17:19:18.213Z,100024.16
2023-03-21T17:21:46.640Z,100024.95
2023-03-21T17:24:14.315Z,100025.52
2023-03-21T17:26:43.823Z,100026.55
2023-03-21T17:29:13.919Z,100032.91
2023-03-21T17:31:41.259Z,100034.62
2023-03-21T17:34:09.784Z,100035.10
2023-03-21T17:36:38.661Z,100037.15
2023-03-21T17:39:08.756Z,100041.29
2023-03-21T17:41:36.634Z,100041.85
2023-03-21T17:44:04.354Z,100047.36
2023-03-21T17:46:42.054Z,100051.16
2023-03-21T17:49:12.896Z,100051.51
2023-03-21T17:51:40.110Z,100051.11
2023-03-21T17:54:09.593Z,100053.60
2023-03-21T17:56:40.136Z,100051.22
2023-03-21T17:59:12.592Z,100056.40
2023-03-21T18:01:49.962Z,100055.05
2023-03-21T18:04:17.814Z,100060.98
2023-03-21T18:06:45.034Z,100062.05
2023-03-21T18:09:20.246Z,100067.98
2023-03-21T18:11:51.352Z,100070.62
2023-03-21T18:14:25.481Z,100069.16
2023-03-21T18:16:55.100Z,100073.06
2023-03-21T18:19:22.451Z,100074.48
2023-03-21T18:21:50.512Z,100079.73
2023-03-21T18:24:17.977Z,100081.55
2023-03-21T18:26:46.144Z,100083.56
2023-03-21T18:32:08.069Z,100083.02
2023-03-21T18:34:36.386Z,100083.25
2023-03-21T18:37:04.558Z,100084.16
2023-03-21T18:39:35.024Z,100086.98
2023-03-21T18:42:04.704Z,100085.83
2023-03-21T18:44:47.052Z,100083.27
2023-03-21T18:47:14.970Z,100084.66
2023-03-21T18:50:12.690Z,100082.81
2023-03-21T18:52:33.062Z,100084.61
2023-03-21T18:55:14.731Z,100080.50
2023-03-21T18:58:02.438Z,100080.03
2023-03-21T19:00:29.725Z,100082.16
2023-03-21T19:03:12.996Z,100080.52
2023-03-21T19:05:44.949Z,100077.68
2023-03-21T19:08:12.065Z,100080.32
2023-03-21T19:10:39.547Z,100080.36
2023-03-21T19:13:08.188Z,100078.31
2023-03-21T19:15:35.530Z,100076.25
2023-03-21T19:20:48.876Z,100072.70
2023-03-21T19:23:17.718Z,100070.34
2023-03-21T19:25:45.945Z,100072.46
2023-03-21T19:28:14.171Z,100074.34
2023-03-21T19:30:49.822Z,100073.45
2023-03-21T19:33:18.811Z,100074.69
2023-03-21T19:35:48.998Z,100077.66
2023-03-21T19:38:16.826Z,100077.84
2023-03-21T19:41:05.222Z,100076.09
2023-03-21T19:43:33.578Z,100077.28
2023-03-21T19:46:02.194Z,100077.77
2023-03-21T19:48:30.420Z,100077.06
2023-03-21T19:51:26.804Z,100076.90
2023-03-21T19:53:50.037Z,100080.41
2023-03-21T19:56:22.308Z,100081.98
2023-03-21T19:58:52.268Z,100083.38
2023-03-21T20:01:19.706Z,100086.70
2023-03-21T20:03:47.392Z,100093.12
2023-03-21T20:06:14.972Z,100091.08
2023-03-21T20:11:32.884Z,100090.77
2023-03-21T20:14:02.044Z,100090.80
2023-03-21T20:16:35.514Z,100084.81
2023-03-21T20:19:03.141Z,100090.98
2023-03-21T20:21:42.246Z,100093.81
2023-03-21T20:24:13.794Z,100098.02
2023-03-21T20:26:41.387Z,100096.65
2023-03-21T20:29:59.915Z,100100.11
2023-03-21T20:31:56.380Z,100100.99
2023-03-21T20:34:23.496Z,100102.73
2023-03-21T20:36:51.006Z,100101.52
2023-03-21T20:39:18.465Z,100103.23
2023-03-21T20:41:45.629Z,100100.65
2023-03-21T20:44:44.885Z,100103.85
2023-03-21T20:47:04.362Z,100101.73
2023-03-21T20:49:34.272Z,100099.23
2023-03-21T20:54:58.489Z,100098.60
2023-03-21T20:57:27.341Z,100098.17
2023-03-21T20:59:55.000Z,100095.13
2023-03-21T21:02:22.517Z,100094.15
2023-03-21T21:05:21.595Z,100094.12
2023-03-21T21:07:37.717Z,100090.36
2023-03-21T21:10:05.969Z,100085.95
2023-03-21T21:12:33.138Z,100084.56
2023-03-21T21:15:00.242Z,100085.20
2023-03-21T21:18:03.610Z,100084.23
2023-03-21T21:20:21.182Z,100084.14
2023-03-21T21:23:00.254Z,100087.70
2023-03-21T21:25:29.043Z,100090.05
2023-03-21T21:27:56.341Z,100090.50
2023-03-21T21:30:32.773Z,100086.79
2023-03-21T21:33:00.945Z,100082.55
2023-03-21T21:35:28.633Z,100079.67
2023-03-21T21:37:56.393Z,100083.31
2023-03-21T21:40:24.574Z,100082.67
2023-03-21T21:42:52.286Z,100080.83
2023-03-21T21:45:20.215Z,100082.06
2023-03-21T21:47:48.419Z,100079.16
2023-03-21T21:50:15.646Z,100079.04
2023-03-21T21:52:53.028Z,100083.92
2023-03-21T21:55:20.590Z,100079.16
2023-03-21T21:57:51.499Z,100079.94
2023-03-21T22:00:21.562Z,100077.41
2023-03-21T22:02:48.763Z,100080.57
2023-03-21T22:05:16.539Z,100084.07
2023-03-21T22:07:44.050Z,100089.45
2023-03-21T22:10:12.423Z,100092.59
2023-03-21T22:12:42.877Z,100094.86
2023-03-21T22:15:12.219Z,100091.80
2023-03-21T22:17:39.948Z,100095.29
2023-03-21T22:20:08.962Z,100095.33
2023-03-21T22:22:36.548Z,100094.68
2023-03-21T22:25:04.154Z,100093.51
2023-03-21T22:27:31.763Z,100090.63
2023-03-21T22:30:04.479Z,100094.93
2023-03-21T22:32:31.778Z,100092.69
2023-03-21T22:35:02.407Z,100090.77
2023-03-21T22:37:29.934Z,100085.95
2023-03-21T22:40:11.163Z,100082.30
2023-03-21T22:42:39.759Z,100078.69
2023-03-21T22:45:12.655Z,100079.42
2023-03-21T22:47:40.860Z,100079.35
2023-03-21T22:50:10.225Z,100082.55
2023-03-21T22:52:40.612Z,100081.23
2023-03-21T22:55:10.218Z,100087.13
2023-03-21T22:57:40.240Z,100085.63
2023-03-21T23:00:13.815Z,100080.83
2023-03-21T23:02:41.534Z,100083.60
2023-03-21T23:05:11.729Z,100083.31
2023-03-21T23:07:42.565Z,100084.20
2023-03-21T23:10:12.902Z,100087.67
2023-03-21T23:12:40.386Z,100083.27
2023-03-21T23:15:11.977Z,100086.73
2023-03-21T23:17:39.338Z,100085.53
2023-03-21T23:20:11.355Z,100085.39
2023-03-21T23:22:41.677Z,100090.47
2023-03-21T23:25:10.318Z,100094.00
2023-03-21T23:27:40.663Z,100093.23
2023-03-21T23:30:10.191Z,100092.27
2023-03-21T23:32:37.694Z,100087.52
2023-03-21T23:35:05.307Z,100086.38
2023-03-21T23:37:32.568Z,100083.14
2023-03-21T23:40:02.347Z,100084.71
2023-03-21T23:42:34.342Z,100080.79
2023-03-21T23:45:01.562Z,100078.71
2023-03-21T23:47:31.007Z,100076.85
2023-03-21T23:49:58.540Z,100072.75
2023-03-21T23:52:26.252Z,100070.88
2023-03-21T23:54:53.542Z,100067.28
2023-03-21T23:57:22.345Z,100066.77
2023-03-21T23:59:50.455Z,100070.55
